Zografos, Greece
Current Conditions -  °F | °C
As of 8:50 PM on Thursday 23 Oct 2014 (Local Time) from LGTS Reporting Station
Scattered Clouds Scattered Clouds  
Wind Chill: 55°   Ceiling: Unl
Heat Index: 55°   Visibility: 6mi
Dew Point: 41°   Wind: 9mph
Humidity: 58%   Direction: 330°NNW
Pressure: 29.68"   Gusts: NA
Location:  40.28°N, 23.25°E
Report Text: LGTS 231750Z 33008KT 9999 FEW012 SCT030 13/05 Q1005 NOSIG
Loading
Personal Weather Stations






























Interactive Weather Map New forecast layout! Learn more

10-Day Weather Forecast

Advertisements
Track Severe Weather on mobile